sensor_id;sensor_type;location;lat;lon;timestamp;pressure;altitude;pressure_sealevel;temperature;humidity
54978;BME280;40873;47.522;19.106;2024-03-08T00:00:12;100686.16;;;4.87;100.00
54978;BME280;40873;47.522;19.106;2024-03-08T00:03:02;100682.66;;;4.86;100.00
54978;BME280;40873;47.522;19.106;2024-03-08T00:05:30;100685.44;;;4.82;100.00
54978;BME280;40873;47.522;19.106;2024-03-08T00:07:57;100687.28;;;4.78;100.00
54978;BME280;40873;47.522;19.106;2024-03-08T00:10:24;100682.22;;;4.72;100.00
54978;BME280;40873;47.522;19.106;2024-03-08T00:12:54;100684.09;;;4.68;100.00
54978;BME280;40873;47.522;19.106;2024-03-08T00:15:21;100690.19;;;4.69;100.00
54978;BME280;40873;47.522;19.106;2024-03-08T00:17:50;100688.31;;;4.73;100.00
54978;BME280;40873;47.522;19.106;2024-03-08T00:20:17;100686.47;;;4.76;100.00
54978;BME280;40873;47.522;19.106;2024-03-08T00:22:47;100685.50;;;4.80;100.00
54978;BME280;40873;47.522;19.106;2024-03-08T00:25:14;100682.03;;;4.78;100.00
54978;BME280;40873;47.522;19.106;2024-03-08T00:27:42;100687.28;;;4.78;100.00
54978;BME280;40873;47.522;19.106;2024-03-08T00:30:09;100689.13;;;4.75;100.00
54978;BME280;40873;47.522;19.106;2024-03-08T00:32:38;100679.63;;;4.72;100.00
54978;BME280;40873;47.522;19.106;2024-03-08T00:35:05;100686.41;;;4.78;100.00
54978;BME280;40873;47.522;19.106;2024-03-08T00:37:36;100676.88;;;4.77;100.00
54978;BME280;40873;47.522;19.106;2024-03-08T00:40:03;100670.59;;;4.82;100.00
54978;BME280;40873;47.522;19.106;2024-03-08T00:42:31;100675.88;;;4.81;100.00
54978;BME280;40873;47.522;19.106;2024-03-08T00:45:00;100674.88;;;4.85;100.00
54978;BME280;40873;47.522;19.106;2024-03-08T00:47:27;100674.00;;;4.84;100.00
54978;BME280;40873;47.522;19.106;2024-03-08T00:49:55;100670.59;;;4.82;100.00
54978;BME280;40873;47.522;19.106;2024-03-08T00:52:23;100663.66;;;4.81;100.00
54978;BME280;40873;47.522;19.106;2024-03-08T00:54:50;100658.31;;;4.84;100.00
54978;BME280;40873;47.522;19.106;2024-03-08T00:57:18;100663.56;;;4.84;100.00
54978;BME280;40873;47.522;19.106;2024-03-08T00:59:45;100667.78;;;4.88;100.00
54978;BME280;40873;47.522;19.106;2024-03-08T01:02:12;100663.38;;;4.90;100.00
54978;BME280;40873;47.522;19.106;2024-03-08T01:04:39;100663.41;;;4.89;100.00
54978;BME280;40873;47.522;19.106;2024-03-08T01:07:07;100657.38;;;4.87;100.00
54978;BME280;40873;47.522;19.106;2024-03-08T01:09:33;100657.28;;;4.90;100.00
54978;BME280;40873;47.522;19.106;2024-03-08T01:12:01;100657.38;;;4.87;100.00
54978;BME280;40873;47.522;19.106;2024-03-08T01:14:28;100653.03;;;4.86;100.00
54978;BME280;40873;47.522;19.106;2024-03-08T01:16:57;100649.56;;;4.85;100.00
54978;BME280;40873;47.522;19.106;2024-03-08T01:19:25;100648.84;;;4.82;100.00
54978;BME280;40873;47.522;19.106;2024-03-08T01:21:52;100652.34;;;4.81;100.00
54978;BME280;40873;47.522;19.106;2024-03-08T01:24:19;100646.22;;;4.82;100.00
54978;BME280;40873;47.522;19.106;2024-03-08T01:26:46;100649.56;;;4.85;100.00
54978;BME280;40873;47.522;19.106;2024-03-08T01:29:14;100651.44;;;4.82;100.00
54978;BME280;40873;47.522;19.106;2024-03-08T01:31:41;100655.41;;;4.93;100.00
54978;BME280;40873;47.522;19.106;2024-03-08T01:34:08;100651.94;;;4.93;100.00
54978;BME280;40873;47.522;19.106;2024-03-08T01:36:35;100654.53;;;4.94;100.00
54978;BME280;40873;47.522;19.106;2024-03-08T01:39:04;100656.97;;;4.99;100.00
54978;BME280;40873;47.522;19.106;2024-03-08T01:41:35;100654.34;;;4.99;100.00
54978;BME280;40873;47.522;19.106;2024-03-08T01:44:03;100653.38;;;5.03;100.00
54978;BME280;40873;47.522;19.106;2024-03-08T01:46:31;100657.88;;;4.98;100.00
54978;BME280;40873;47.522;19.106;2024-03-08T01:48:58;100652.75;;;4.95;100.00
54978;BME280;40873;47.522;19.106;2024-03-08T01:51:28;100648.63;;;4.88;100.00
54978;BME280;40873;47.522;19.106;2024-03-08T01:53:56;100651.13;;;4.91;100.00
54978;BME280;40873;47.522;19.106;2024-03-08T01:56:25;100648.59;;;4.89;100.00
54978;BME280;40873;47.522;19.106;2024-03-08T01:58:52;100643.50;;;4.85;100.00
54978;BME280;40873;47.522;19.106;2024-03-08T02:01:19;100648.72;;;4.85;100.00
54978;BME280;40873;47.522;19.106;2024-03-08T02:03:46;100649.56;;;4.85;100.00
54978;BME280;40873;47.522;19.106;2024-03-08T02:06:14;100651.38;;;4.83;100.00
54978;BME280;40873;47.522;19.106;2024-03-08T02:08:43;100652.19;;;4.85;100.00
54978;BME280;40873;47.522;19.106;2024-03-08T02:11:14;100646.03;;;4.88;100.00
54978;BME280;40873;47.522;19.106;2024-03-08T02:13:42;100647.88;;;4.84;100.00
54978;BME280;40873;47.522;19.106;2024-03-08T02:16:10;100648.88;;;4.80;100.00
54978;BME280;40873;47.522;19.106;2024-03-08T02:18:37;100655.66;;;4.86;100.00
54978;BME280;40873;47.522;19.106;2024-03-08T02:21:07;100650.28;;;4.90;100.00
54978;BME280;40873;47.522;19.106;2024-03-08T02:23:36;100654.56;;;4.93;100.00
54978;BME280;40873;47.522;19.106;2024-03-08T02:26:04;100657.09;;;4.96;100.00
54978;BME280;40873;47.522;19.106;2024-03-08T02:28:31;100655.38;;;4.95;100.00
54978;BME280;40873;47.522;19.106;2024-03-08T02:30:59;100654.41;;;4.98;100.00
54978;BME280;40873;47.522;19.106;2024-03-08T02:33:27;100657.22;;;4.91;100.00
54978;BME280;40873;47.522;19.106;2024-03-08T02:35:55;100657.16;;;4.93;100.00
54978;BME280;40873;47.522;19.106;2024-03-08T02:38:25;100658.13;;;4.90;100.00
54978;BME280;40873;47.522;19.106;2024-03-08T02:40:53;100653.00;;;4.87;100.00
54978;BME280;40873;47.522;19.106;2024-03-08T02:43:22;100649.56;;;4.85;100.00
54978;BME280;40873;47.522;19.106;2024-03-08T02:45:50;100653.03;;;4.86;100.00
54978;BME280;40873;47.522;19.106;2024-03-08T02:48:19;100656.69;;;4.82;100.00
54978;BME280;40873;47.522;19.106;2024-03-08T02:50:48;100659.38;;;4.79;100.00
54978;BME280;40873;47.522;19.106;2024-03-08T02:53:15;100655.91;;;4.78;100.00
54978;BME280;40873;47.522;19.106;2024-03-08T02:55:42;100656.56;;;4.85;100.00
54978;BME280;40873;47.522;19.106;2024-03-08T02:58:09;100664.56;;;4.80;100.00
54978;BME280;40873;47.522;19.106;2024-03-08T03:00:38;100656.81;;;4.77;100.00
54978;BME280;40873;47.522;19.106;2024-03-08T03:03:07;100664.59;;;4.79;100.00
54978;BME280;40873;47.522;19.106;2024-03-08T03:05:35;100663.69;;;4.80;100.00
54978;BME280;40873;47.522;19.106;2024-03-08T03:08:02;100663.69;;;4.80;100.00
54978;BME280;40873;47.522;19.106;2024-03-08T03:10:36;100661.97;;;4.80;100.00
54978;BME280;40873;47.522;19.106;2024-03-08T03:13:04;100665.50;;;4.78;100.00
54978;BME280;40873;47.522;19.106;2024-03-08T03:15:35;100668.13;;;4.78;100.00
54978;BME280;40873;47.522;19.106;2024-03-08T03:18:03;100662.84;;;4.79;100.00
54978;BME280;40873;47.522;19.106;2024-03-08T03:20:32;100668.16;;;4.76;100.00
54978;BME280;40873;47.522;19.106;2024-03-08T03:23:00;100670.00;;;4.74;100.00
54978;BME280;40873;47.522;19.106;2024-03-08T03:25:29;100665.56;;;4.76;100.00
54978;BME280;40873;47.522;19.106;2024-03-08T03:28:01;100671.03;;;4.68;100.00
54978;BME280;40873;47.522;19.106;2024-03-08T03:30:29;100668.34;;;4.70;100.00
54978;BME280;40873;47.522;19.106;2024-03-08T03:33:00;100672.63;;;4.73;100.00
54978;BME280;40873;47.522;19.106;2024-03-08T03:35:28;100667.31;;;4.76;100.00
54978;BME280;40873;47.522;19.106;2024-03-08T03:37:58;100670.06;;;4.71;100.00
54978;BME280;40873;47.522;19.106;2024-03-08T03:40:44;100670.19;;;4.68;100.00
54978;BME280;40873;47.522;19.106;2024-03-08T03:43:12;100672.00;;;4.66;100.00
54978;BME280;40873;47.522;19.106;2024-03-08T03:45:40;100666.66;;;4.69;100.00
54978;BME280;40873;47.522;19.106;2024-03-08T03:48:09;100669.22;;;4.71;100.00
54978;BME280;40873;47.522;19.106;2024-03-08T03:50:38;100668.41;;;4.68;100.00
54978;BME280;40873;47.522;19.106;2024-03-08T03:53:06;100673.53;;;4.72;100.00
54978;BME280;40873;47.522;19.106;2024-03-08T03:55:37;100676.16;;;4.72;100.00
54978;BME280;40873;47.522;19.106;2024-03-08T03:58:07;100668.28;;;4.73;100.00
54978;BME280;40873;47.522;19.106;2024-03-08T04:00:34;100674.31;;;4.75;100.00
54978;BME280;40873;47.522;19.106;2024-03-08T04:03:04;100670.97;;;4.70;100.00
54978;BME280;40873;47.522;19.106;2024-03-08T04:05:33;100674.50;;;4.69;100.00
54978;BME280;40873;47.522;19.106;2024-03-08T04:08:00;100668.41;;;4.68;100.00
54978;BME280;40873;47.522;19.106;2024-03-08T04:10:27;100677.16;;;4.67;100.00
54978;BME280;40873;47.522;19.106;2024-03-08T04:12:54;100667.56;;;4.68;100.00
54978;BME280;40873;47.522;19.106;2024-03-08T04:15:21;100667.25;;;4.77;100.00
54978;BME280;40873;47.522;19.106;2024-03-08T04:17:48;100666.59;;;4.71;100.00
54978;BME280;40873;47.522;19.106;2024-03-08T04:20:15;100672.00;;;4.66;100.00
54978;BME280;40873;47.522;19.106;2024-03-08T04:22:44;100672.00;;;4.64;100.00
54978;BME280;40873;47.522;19.106;2024-03-08T04:25:14;100670.22;;;4.66;100.00
54978;BME280;40873;47.522;19.106;2024-03-08T04:27:41;100671.94;;;4.67;100.00
54978;BME280;40873;47.522;19.106;2024-03-08T04:30:08;100676.25;;;4.68;100.00
54978;BME280;40873;47.522;19.106;2024-03-08T04:32:36;100674.56;;;4.67;100.00
54978;BME280;40873;47.522;19.106;2024-03-08T04:35:05;100675.53;;;4.63;100.00
54978;BME280;40873;47.522;19.106;2024-03-08T04:37:32;100680.88;;;4.60;100.00
54978;BME280;40873;47.522;19.106;2024-03-08T04:39:59;100677.34;;;4.61;100.00
54978;BME280;40873;47.522;19.106;2024-03-08T04:42:28;100675.72;;;4.57;100.00
54978;BME280;40873;47.522;19.106;2024-03-08T04:44:57;100679.59;;;4.74;100.00
54978;BME280;40873;47.522;19.106;2024-03-08T04:47:25;100675.28;;;4.71;100.00
54978;BME280;40873;47.522;19.106;2024-03-08T04:49:52;100686.91;;;4.62;100.00
54978;BME280;40873;47.522;19.106;2024-03-08T04:52:19;100678.19;;;4.62;100.00
54978;BME280;40873;47.522;19.106;2024-03-08T04:54:47;100686.13;;;4.59;100.00
54978;BME280;40873;47.522;19.106;2024-03-08T04:57:15;100689.56;;;4.61;100.00
54978;BME280;40873;47.522;19.106;2024-03-08T04:59:45;100682.63;;;4.60;100.00
54978;BME280;40873;47.522;19.106;2024-03-08T05:02:12;100680.69;;;4.66;100.00
54978;BME280;40873;47.522;19.106;2024-03-08T05:04:39;100678.00;;;4.68;100.00
54978;BME280;40873;47.522;19.106;2024-03-08T05:07:06;100685.00;;;4.67;100.00
54978;BME280;40873;47.522;19.106;2024-03-08T05:09:34;100677.28;;;4.63;100.00
54978;BME280;40873;47.522;19.106;2024-03-08T05:12:03;100681.00;;;4.56;100.00
54978;BME280;40873;47.522;19.106;2024-03-08T05:14:30;100680.03;;;4.58;100.00
54978;BME280;40873;47.522;19.106;2024-03-08T05:16:57;100685.25;;;4.60;100.00
54978;BME280;40873;47.522;19.106;2024-03-08T05:19:25;100683.38;;;4.63;100.00
54978;BME280;40873;47.522;19.106;2024-03-08T05:21:52;100679.84;;;4.66;100.00
54978;BME280;40873;47.522;19.106;2024-03-08T05:24:19;100689.50;;;4.62;100.00
54978;BME280;40873;47.522;19.106;2024-03-08T05:26:46;100687.94;;;4.57;100.00
54978;BME280;40873;47.522;19.106;2024-03-08T05:29:16;100694.19;;;4.51;100.00
54978;BME280;40873;47.522;19.106;2024-03-08T05:31:50;100692.47;;;4.50;100.00
54978;BME280;40873;47.522;19.106;2024-03-08T05:34:19;100695.81;;;4.55;100.00
54978;BME280;40873;47.522;19.106;2024-03-08T05:36:48;100706.41;;;4.51;100.00
54978;BME280;40873;47.522;19.106;2024-03-08T05:39:18;100701.94;;;4.54;100.00
54978;BME280;40873;47.522;19.106;2024-03-08T05:41:47;100702.97;;;4.49;100.00
54978;BME280;40873;47.522;19.106;2024-03-08T05:44:14;100706.03;;;4.63;100.00
54978;BME280;40873;47.522;19.106;2024-03-08T05:46:46;100714.84;;;4.59;100.00
54978;BME280;40873;47.522;19.106;2024-03-08T05:49:14;100716.66;;;4.57;100.00
54978;BME280;40873;47.522;19.106;2024-03-08T05:51:42;100710.59;;;4.56;100.00
54978;BME280;40873;47.522;19.106;2024-03-08T05:54:11;100713.25;;;4.55;100.00
54978;BME280;40873;47.522;19.106;2024-03-08T05:56:41;100723.72;;;4.55;100.00
54978;BME280;40873;47.522;19.106;2024-03-08T05:59:12;100721.66;;;4.66;100.00
54978;BME280;40873;47.522;19.106;2024-03-08T06:01:40;100724.25;;;4.66;100.00
54978;BME280;40873;47.522;19.106;2024-03-08T06:04:09;100725.19;;;4.63;100.00
54978;BME280;40873;47.522;19.106;2024-03-08T06:06:39;100723.44;;;4.64;100.00
54978;BME280;40873;47.522;19.106;2024-03-08T06:09:07;100724.34;;;4.63;100.00
54978;BME280;40873;47.522;19.106;2024-03-08T06:11:37;100718.19;;;4.64;100.00
54978;BME280;40873;47.522;19.106;2024-03-08T06:14:05;100719.84;;;4.68;100.00
54978;BME280;40873;47.522;19.106;2024-03-08T06:16:33;100728.47;;;4.70;100.00
54978;BME280;40873;47.522;19.106;2024-03-08T06:19:00;100724.03;;;4.72;100.00
54978;BME280;40873;47.522;19.106;2024-03-08T06:21:29;100732.72;;;4.74;100.00
54978;BME280;40873;47.522;19.106;2024-03-08T06:23:59;100732.59;;;4.77;100.00
54978;BME280;40873;47.522;19.106;2024-03-08T06:26:27;100734.25;;;4.80;100.00
54978;BME280;40873;47.522;19.106;2024-03-08T06:28:59;100735.16;;;4.79;100.00
54978;BME280;40873;47.522;19.106;2024-03-08T06:31:26;100739.41;;;4.83;100.00
54978;BME280;40873;47.522;19.106;2024-03-08T06:33:53;100737.66;;;4.83;100.00
54978;BME280;40873;47.522;19.106;2024-03-08T06:36:24;100737.75;;;4.80;100.00
54978;BME280;40873;47.522;19.106;2024-03-08T06:38:53;100734.13;;;4.84;100.00
54978;BME280;40873;47.522;19.106;2024-03-08T06:41:21;100735.03;;;4.83;100.00
54978;BME280;40873;47.522;19.106;2024-03-08T06:43:48;100740.94;;;4.90;100.00
54978;BME280;40873;47.522;19.106;2024-03-08T06:46:18;100742.66;;;4.91;100.00
54978;BME280;40873;47.522;19.106;2024-03-08T06:48:48;100744.69;;;4.81;100.00
54978;BME280;40873;47.522;19.106;2024-03-08T06:51:17;100745.38;;;4.88;100.00
54978;BME280;40873;47.522;19.106;2024-03-08T06:53:44;100746.06;;;4.93;100.00
54978;BME280;40873;47.522;19.106;2024-03-08T06:56:12;100745.25;;;4.91;100.00
54978;BME280;40873;47.522;19.106;2024-03-08T06:58:39;100745.13;;;4.95;100.00
54978;BME280;40873;47.522;19.106;2024-03-08T07:01:06;100740.41;;;5.07;100.00
54978;BME280;40873;47.522;19.106;2024-03-08T07:03:35;100744.59;;;5.12;100.00
54978;BME280;40873;47.522;19.106;2024-03-08T07:06:02;100747.03;;;5.18;100.00
54978;BME280;40873;47.522;19.106;2024-03-08T07:08:31;100750.00;;;5.34;100.00
54978;BME280;40873;47.522;19.106;2024-03-08T07:10:58;100743.41;;;5.22;100.00
54978;BME280;40873;47.522;19.106;2024-03-08T07:13:26;100746.94;;;5.21;100.00
54978;BME280;40873;47.522;19.106;2024-03-08T07:15:56;100740.09;;;5.17;100.00
54978;BME280;40873;47.522;19.106;2024-03-08T07:18:23;100750.59;;;5.16;100.00
54978;BME280;40873;47.522;19.106;2024-03-08T07:20:50;100747.22;;;5.12;100.00
54978;BME280;40873;47.522;19.106;2024-03-08T07:23:17;100750.72;;;5.11;100.00
54978;BME280;40873;47.522;19.106;2024-03-08T07:26:04;100748.91;;;5.13;100.00
54978;BME280;40873;47.522;19.106;2024-03-08T07:28:31;100752.97;;;5.23;100.00
54978;BME280;40873;47.522;19.106;2024-03-08T07:30:58;100757.44;;;5.20;100.00
54978;BME280;40873;47.522;19.106;2024-03-08T07:33:48;100747.94;;;5.17;100.00
54978;BME280;40873;47.522;19.106;2024-03-08T07:36:17;100755.81;;;5.16;100.00
54978;BME280;40873;47.522;19.106;2024-03-08T07:38:44;100754.97;;;5.15;100.00
54978;BME280;40873;47.522;19.106;2024-03-08T07:41:17;100758.38;;;5.17;100.00
54978;BME280;40873;47.522;19.106;2024-03-08T07:43:44;100760.09;;;5.18;100.00
54978;BME280;40873;47.522;19.106;2024-03-08T07:46:12;100763.56;;;5.19;100.00
54978;BME280;40873;47.522;19.106;2024-03-08T07:48:40;100761.81;;;5.19;100.00
54978;BME280;40873;47.522;19.106;2024-03-08T07:51:07;100758.44;;;5.16;100.00
54978;BME280;40873;47.522;19.106;2024-03-08T07:53:37;100763.69;;;5.14;100.00
54978;BME280;40873;47.522;19.106;2024-03-08T07:56:05;100761.00;;;5.17;100.00
54978;BME280;40873;47.522;19.106;2024-03-08T07:58:32;100755.06;;;5.12;100.00
54978;BME280;40873;47.522;19.106;2024-03-08T08:01:01;100766.28;;;5.16;100.00
54978;BME280;40873;47.522;19.106;2024-03-08T08:03:29;100761.06;;;5.16;100.00
54978;BME280;40873;47.522;19.106;2024-03-08T08:05:58;100760.88;;;5.22;100.00
54978;BME280;40873;47.522;19.106;2024-03-08T08:08:25;100763.31;;;5.27;100.00
54978;BME280;40873;47.522;19.106;2024-03-08T08:10:53;100754.56;;;5.28;100.00
54978;BME280;40873;47.522;19.106;2024-03-08T08:13:20;100757.84;;;5.34;100.00
54978;BME280;40873;47.522;19.106;2024-03-08T08:15:47;100760.47;;;5.34;100.00
54978;BME280;40873;47.522;19.106;2024-03-08T08:18:14;100755.03;;;5.40;100.00
54978;BME280;40873;47.522;19.106;2024-03-08T08:20:41;100758.56;;;5.39;100.00
54978;BME280;40873;47.522;19.106;2024-03-08T08:23:09;100760.31;;;5.39;100.00
54978;BME280;40873;47.522;19.106;2024-03-08T08:25:39;100760.38;;;5.37;100.00
54978;BME280;40873;47.522;19.106;2024-03-08T08:28:05;100769.22;;;5.33;100.00
54978;BME280;40873;47.522;19.106;2024-03-08T08:30:33;100769.06;;;5.38;100.00
54978;BME280;40873;47.522;19.106;2024-03-08T08:33:00;100764.63;;;5.40;100.00
54978;BME280;40873;47.522;19.106;2024-03-08T08:35:28;100766.47;;;5.38;100.00
54978;BME280;40873;47.522;19.106;2024-03-08T08:37:55;100768.13;;;5.40;100.00
54978;BME280;40873;47.522;19.106;2024-03-08T08:40:23;100765.59;;;5.37;100.00
54978;BME280;40873;47.522;19.106;2024-03-08T08:42:52;100758.41;;;5.44;100.00
54978;BME280;40873;47.522;19.106;2024-03-08T08:45:19;100757.50;;;5.45;100.00
54978;BME280;40873;47.522;19.106;2024-03-08T08:47:52;100751.25;;;5.49;100.00
54978;BME280;40873;47.522;19.106;2024-03-08T08:50:19;100753.00;;;5.50;100.00
54978;BME280;40873;47.522;19.106;2024-03-08T08:52:50;100762.34;;;5.57;100.00
54978;BME280;40873;47.522;19.106;2024-03-08T08:55:21;100757.66;;;5.67;100.00
54978;BME280;40873;47.522;19.106;2024-03-08T08:57:52;100761.13;;;5.67;100.00
54978;BME280;40873;47.522;19.106;2024-03-08T09:00:20;100755.94;;;5.66;100.00
54978;BME280;40873;47.522;19.106;2024-03-08T09:02:48;100758.41;;;5.70;100.00
54978;BME280;40873;47.522;19.106;2024-03-08T09:05:15;100760.00;;;5.74;100.00
54978;BME280;40873;47.522;19.106;2024-03-08T09:07:44;100754.03;;;5.71;100.00
54978;BME280;40873;47.522;19.106;2024-03-08T09:10:12;100762.47;;;5.79;100.00
54978;BME280;40873;47.522;19.106;2024-03-08T09:12:44;100751.25;;;5.75;100.00
54978;BME280;40873;47.522;19.106;2024-03-08T09:15:14;100756.38;;;5.78;100.00
54978;BME280;40873;47.522;19.106;2024-03-08T09:17:44;100756.06;;;5.88;100.00
54978;BME280;40873;47.522;19.106;2024-03-08T09:20:11;100755.09;;;5.90;100.00
54978;BME280;40873;47.522;19.106;2024-03-08T09:22:45;100755.16;;;5.89;100.00
54978;BME280;40873;47.522;19.106;2024-03-08T09:25:13;100759.28;;;5.96;100.00
54978;BME280;40873;47.522;19.106;2024-03-08T09:27:40;100760.34;;;5.92;100.00
54978;BME280;40873;47.522;19.106;2024-03-08T09:30:08;100756.97;;;6.13;100.00
54978;BME280;40873;47.522;19.106;2024-03-08T09:32:35;100755.25;;;6.12;100.00
54978;BME280;40873;47.522;19.106;2024-03-08T09:35:04;100753.41;;;6.14;100.00
54978;BME280;40873;47.522;19.106;2024-03-08T09:37:35;100759.38;;;6.19;100.00
54978;BME280;40873;47.522;19.106;2024-03-08T09:40:02;100756.50;;;6.25;100.00
54978;BME280;40873;47.522;19.106;2024-03-08T09:42:31;100757.09;;;6.34;100.00
54978;BME280;40873;47.522;19.106;2024-03-08T09:44:59;100757.09;;;6.34;100.00
54978;BME280;40873;47.522;19.106;2024-03-08T09:47:28;100750.94;;;6.35;100.00
54978;BME280;40873;47.522;19.106;2024-03-08T09:50:00;100755.97;;;6.41;100.00
54978;BME280;40873;47.522;19.106;2024-03-08T09:52:29;100750.59;;;6.44;100.00
54978;BME280;40873;47.522;19.106;2024-03-08T09:54:58;100750.44;;;6.48;100.00
54978;BME280;40873;47.522;19.106;2024-03-08T09:57:25;100756.59;;;6.47;100.00
54978;BME280;40873;47.522;19.106;2024-03-08T09:59:53;100753.97;;;6.47;100.00
54978;BME280;40873;47.522;19.106;2024-03-08T10:02:19;100753.97;;;6.47;100.00
54978;BME280;40873;47.522;19.106;2024-03-08T10:04:48;100756.19;;;6.58;100.00
54978;BME280;40873;47.522;19.106;2024-03-08T10:07:15;100756.75;;;6.66;100.00
54978;BME280;40873;47.522;19.106;2024-03-08T10:09:43;100763.53;;;6.72;100.00
54978;BME280;40873;47.522;19.106;2024-03-08T10:12:16;100758.22;;;6.73;100.00
54978;BME280;40873;47.522;19.106;2024-03-08T10:14:44;100753.53;;;6.81;100.00
54978;BME280;40873;47.522;19.106;2024-03-08T10:17:11;100756.13;;;6.83;100.00
54978;BME280;40873;47.522;19.106;2024-03-08T10:19:38;100755.69;;;6.94;100.00
54978;BME280;40873;47.522;19.106;2024-03-08T10:22:06;100759.91;;;6.98;100.00
54978;BME280;40873;47.522;19.106;2024-03-08T10:24:33;100759.84;;;6.99;100.00
54978;BME280;40873;47.522;19.106;2024-03-08T10:27:04;100757.28;;;6.98;100.00
54978;BME280;40873;47.522;19.106;2024-03-08T10:29:32;100766.00;;;6.98;100.00
54978;BME280;40873;47.522;19.106;2024-03-08T10:31:59;100758.22;;;6.97;100.00
54978;BME280;40873;47.522;19.106;2024-03-08T10:34:27;100750.75;;;7.08;100.00
54978;BME280;40873;47.522;19.106;2024-03-08T10:36:56;100757.72;;;7.09;100.00
54978;BME280;40873;47.522;19.106;2024-03-08T10:39:31;100749.97;;;7.28;100.00
54978;BME280;40873;47.522;19.106;2024-03-08T10:42:03;100752.94;;;7.40;100.00
54978;BME280;40873;47.522;19.106;2024-03-08T10:47:03;100739.94;;;7.59;100.00
54978;BME280;40873;47.522;19.106;2024-03-08T10:49:38;100743.47;;;7.58;100.00
54978;BME280;40873;47.522;19.106;2024-03-08T10:52:06;100744.25;;;7.60;100.00
54978;BME280;40873;47.522;19.106;2024-03-08T10:54:37;100743.75;;;7.73;100.00
54978;BME280;40873;47.522;19.106;2024-03-08T10:57:13;100748.84;;;7.76;100.00
54978;BME280;40873;47.522;19.106;2024-03-08T10:59:42;100748.16;;;7.72;100.00
54978;BME280;40873;47.522;19.106;2024-03-08T11:02:11;100743.75;;;7.73;100.00
54978;BME280;40873;47.522;19.106;2024-03-08T11:04:45;100744.72;;;7.70;100.00
54978;BME280;40873;47.522;19.106;2024-03-08T11:07:13;100750.81;;;7.70;100.00
54978;BME280;40873;47.522;19.106;2024-03-08T11:09:44;100749.25;;;7.66;100.00
54978;BME280;40873;47.522;19.106;2024-03-08T11:14:52;100737.91;;;7.66;100.00
54978;BME280;40873;47.522;19.106;2024-03-08T11:19:59;100748.44;;;7.64;100.00
54978;BME280;40873;47.522;19.106;2024-03-08T11:22:33;100733.56;;;7.65;100.00
54978;BME280;40873;47.522;19.106;2024-03-08T11:25:04;100737.09;;;7.64;100.00
54978;BME280;40873;47.522;19.106;2024-03-08T11:27:37;100735.31;;;7.64;100.00
54978;BME280;40873;47.522;19.106;2024-03-08T11:30:06;100734.44;;;7.65;100.00
54978;BME280;40873;47.522;19.106;2024-03-08T11:32:45;100729.22;;;7.64;100.00
54978;BME280;40873;47.522;19.106;2024-03-08T11:35:21;100730.28;;;7.60;100.00
54978;BME280;40873;47.522;19.106;2024-03-08T11:37:52;100726.91;;;7.56;100.00
54978;BME280;40873;47.522;19.106;2024-03-08T11:40:19;100726.84;;;7.58;100.00
54978;BME280;40873;47.522;19.106;2024-03-08T11:42:48;100721.66;;;7.56;100.00
54978;BME280;40873;47.522;19.106;2024-03-08T11:45:16;100718.66;;;7.65;100.00
54978;BME280;40873;47.522;19.106;2024-03-08T11:47:44;100713.19;;;7.70;100.00
54978;BME280;40873;47.522;19.106;2024-03-08T11:50:16;100717.16;;;7.60;100.00
54978;BME280;40873;47.522;19.106;2024-03-08T11:52:43;100720.69;;;7.59;100.00
54978;BME280;40873;47.522;19.106;2024-03-08T11:55:11;100721.41;;;7.62;100.00
54978;BME280;40873;47.522;19.106;2024-03-08T11:57:40;100714.53;;;7.60;100.00
54978;BME280;40873;47.522;19.106;2024-03-08T12:00:15;100713.53;;;7.62;100.00
54978;BME280;40873;47.522;19.106;2024-03-08T12:03:06;100712.25;;;7.51;100.00
54978;BME280;40873;47.522;19.106;2024-03-08T12:05:33;100711.81;;;7.61;100.00
54978;BME280;40873;47.522;19.106;2024-03-08T12:08:02;100706.72;;;7.58;100.00
54978;BME280;40873;47.522;19.106;2024-03-08T12:10:29;100706.66;;;7.60;100.00
54978;BME280;40873;47.522;19.106;2024-03-08T12:12:58;100706.44;;;7.64;100.00
54978;BME280;40873;47.522;19.106;2024-03-08T12:15:31;100711.56;;;7.67;100.00
54978;BME280;40873;47.522;19.106;2024-03-08T12:18:01;100698.78;;;7.60;100.00
54978;BME280;40873;47.522;19.106;2024-03-08T12:20:31;100705.84;;;7.58;100.00
54978;BME280;40873;47.522;19.106;2024-03-08T12:22:59;100708.19;;;7.64;100.00
54978;BME280;40873;47.522;19.106;2024-03-08T12:25:30;100699.28;;;7.68;100.00
54978;BME280;40873;47.522;19.106;2024-03-08T12:28:11;100688.19;;;7.82;100.00
54978;BME280;40873;47.522;19.106;2024-03-08T12:30:51;100700.84;;;7.92;100.00
54978;BME280;40873;47.522;19.106;2024-03-08T12:33:20;100688.59;;;7.93;100.00
54978;BME280;40873;47.522;19.106;2024-03-08T12:35:53;100689.22;;;7.98;100.00
54978;BME280;40873;47.522;19.106;2024-03-08T12:38:22;100689.69;;;7.87;100.00
54978;BME280;40873;47.522;19.106;2024-03-08T12:41:00;100691.59;;;7.84;100.00
54978;BME280;40873;47.522;19.106;2024-03-08T12:43:28;100692.59;;;7.81;100.00
54978;BME280;40873;47.522;19.106;2024-03-08T12:45:59;100696.19;;;7.79;100.00
54978;BME280;40873;47.522;19.106;2024-03-08T12:48:26;100690.41;;;7.91;100.00
54978;BME280;40873;47.522;19.106;2024-03-08T12:50:57;100683.44;;;7.90;100.00
54978;BME280;40873;47.522;19.106;2024-03-08T12:53:23;100690.47;;;7.89;100.00
54978;BME280;40873;47.522;19.106;2024-03-08T12:55:52;100682.16;;;7.80;100.00